Time;durP1;ratioP1;P1;durP2;ratioP2;P2;SDS_P1;SDS_P2;PMS_P1;PMS_P2;Temp;Humidity;BMP_temperature;BMP_pressure;BME280_temperature;BME280_humidity;BME280_pressure;Samples;Min_cycle;Max_cycle;Signal;HPM_P1;HPM_P2
2022/11/30 00:02:39;;;;;;;;;;;;;;;18.33;65.44;101593.54;2276087;78;51480;-75
2022/11/30 00:05:40;;;;;;;;;;;;;;;18.31;65.50;101599.55;2283905;77;51166;-75
2022/11/30 00:08:42;;;;;;;;;;;;;;;18.33;65.60;101602.92;2293632;77;51526;-75
2022/11/30 00:11:43;;;;;;;;;;;;;;;18.37;65.41;101601.62;2307162;77;51528;-75
2022/11/30 00:14:45;;;;;;;;;;;;;;;18.44;65.08;101594.59;2306635;77;51407;-75
2022/11/30 00:17:47;;;;;;;;;;;;;;;18.45;64.91;101605.67;2226546;77;50981;-75
2022/11/30 00:20:48;;;;;;;;;;;;;;;18.45;64.93;101600.31;2233014;78;51422;-76
2022/11/30 00:23:50;;;;;;;;;;;;;;;18.45;65.02;101600.31;2232962;78;51426;-75
2022/11/30 00:26:51;;;;;;;;;;;;;;;18.41;65.15;101600.28;2264781;77;51413;-75
2022/11/30 00:29:53;;;;;;;;;;;;;;;18.40;65.21;101599.12;2233031;78;51203;-74
2022/11/30 00:32:58;;;;;;;;;;;;;;;18.36;65.42;101603.10;2264757;78;51556;-74
2022/11/30 00:36:00;;;;;;;;;;;;;;;18.33;65.66;101610.13;2232863;78;50251;-75
2022/11/30 00:39:01;;;;;;;;;;;;;;;18.28;66.12;101605.23;2264779;78;51595;-74
2022/11/30 00:42:03;;;;;;;;;;;;;;;18.28;66.23;101610.59;2233155;78;51437;-74
2022/11/30 00:45:05;;;;;;;;;;;;;;;18.28;65.90;101606.56;2276388;77;50631;-74
2022/11/30 00:48:07;;;;;;;;;;;;;;;18.35;65.84;101604.95;2259573;78;51560;-73
2022/11/30 00:51:09;;;;;;;;;;;;;;;18.40;65.82;101595.94;2294156;77;51412;-74
2022/11/30 00:54:10;;;;;;;;;;;;;;;18.48;65.55;101605.86;2294071;77;52824;-75
2022/11/30 00:57:12;;;;;;;;;;;;;;;18.52;65.29;101596.98;2294269;77;51520;-74
2022/11/30 01:00:13;;;;;;;;;;;;;;;18.53;65.18;101605.39;2294192;77;51419;-74
2022/11/30 01:03:15;;;;;;;;;;;;;;;18.51;65.15;101610.89;2268624;78;51401;-76
2022/11/30 01:06:17;;;;;;;;;;;;;;;18.48;65.15;101613.39;2278539;77;51599;-75
2022/11/30 01:09:18;;;;;;;;;;;;;;;18.46;65.25;101619.41;2307114;77;50757;-75
2022/11/30 01:12:20;;;;;;;;;;;;;;;18.44;65.41;101616.54;2275796;76;51541;-75
2022/11/30 01:15:21;;;;;;;;;;;;;;;18.40;65.55;101616.53;2269405;77;51447;-74
2022/11/30 01:18:23;;;;;;;;;;;;;;;18.37;65.71;101610.99;2219228;78;52574;-74
2022/11/30 01:21:26;;;;;;;;;;;;;;;18.33;66.19;101608.28;2264723;78;51602;-74
2022/11/30 01:24:28;;;;;;;;;;;;;;;18.30;66.15;101618.48;2263445;78;51329;-74
2022/11/30 01:27:29;;;;;;;;;;;;;;;18.32;66.04;101618.66;2264879;78;52290;-74
2022/11/30 01:30:31;;;;;;;;;;;;;;;18.40;65.78;101624.58;2210561;78;52307;-75
2022/11/30 01:33:33;;;;;;;;;;;;;;;18.43;65.53;101624.25;2234502;78;50107;-75
2022/11/30 01:36:35;;;;;;;;;;;;;;;18.43;65.43;101621.06;2253783;77;51557;-74
2022/11/30 01:39:37;;;;;;;;;;;;;;;18.41;65.58;101624.40;2271447;77;50768;-74
2022/11/30 01:42:40;;;;;;;;;;;;;;;18.41;65.66;101620.88;2249725;77;51563;-75
2022/11/30 01:45:41;;;;;;;;;;;;;;;18.38;65.75;101619.36;2306960;77;51626;-76
2022/11/30 01:48:43;;;;;;;;;;;;;;;18.36;65.95;101617.33;2307090;77;51446;-75
2022/11/30 01:51:49;;;;;;;;;;;;;;;18.33;66.04;101617.66;2307106;76;51404;-75
2022/11/30 01:55:01;;;;;;;;;;;;;;;18.26;66.44;101623.30;2306935;77;51539;-75
2022/11/30 01:58:10;;;;;;;;;;;;;;;18.26;66.59;101623.30;2305805;76;50433;-75
2022/11/30 02:01:12;;;;;;;;;;;;;;;18.25;66.46;101622.45;2307256;77;51493;-75
2022/11/30 02:04:27;;;;;;;;;;;;;;;18.30;66.06;101621.99;2306927;76;50244;-75
2022/11/30 02:07:29;;;;;;;;;;;;;;;18.38;65.92;101626.56;2257503;77;50181;-75
2022/11/30 02:10:31;;;;;;;;;;;;;;;18.42;65.77;101629.25;2248765;78;50834;-75
2022/11/30 02:13:41;;;;;;;;;;;;;;;18.47;65.50;101627.80;2263917;78;50296;-75
2022/11/30 02:17:00;;;;;;;;;;;;;;;18.48;65.36;101628.13;2265178;78;51457;-75
2022/11/30 02:20:10;;;;;;;;;;;;;;;18.48;65.38;101630.81;2231433;78;52051;-75
2022/11/30 02:23:16;;;;;;;;;;;;;;;18.45;65.40;101627.12;2263072;78;51642;-75
2022/11/30 02:26:19;;;;;;;;;;;;;;;18.44;65.45;101624.08;2263170;78;51502;-75
2022/11/30 02:29:23;;;;;;;;;;;;;;;18.41;65.62;101628.92;2262926;78;51514;-75
2022/11/30 02:32:29;;;;;;;;;;;;;;;18.37;65.74;101632.43;2218092;78;52438;-76
2022/11/30 02:35:31;;;;;;;;;;;;;;;18.34;65.89;101632.75;2252655;77;50812;-74
2022/11/30 02:38:33;;;;;;;;;;;;;;;18.27;66.49;101635.71;2278451;77;50427;-76
2022/11/30 02:41:35;;;;;;;;;;;;;;;18.25;66.45;101636.36;2262762;77;51530;-76
2022/11/30 02:44:37;;;;;;;;;;;;;;;18.31;66.16;101637.56;2235714;78;51085;-74
2022/11/30 02:47:40;;;;;;;;;;;;;;;18.35;65.93;101634.42;2284328;78;50289;-74
2022/11/30 02:50:49;;;;;;;;;;;;;;;18.38;65.75;101634.60;2284416;78;50495;-75
2022/11/30 02:53:51;;;;;;;;;;;;;;;18.39;65.74;101635.77;2278087;77;50235;-74
2022/11/30 02:56:52;;;;;;;;;;;;;;;18.36;65.83;101624.03;2263157;77;50068;-74
2022/11/30 02:59:54;;;;;;;;;;;;;;;18.34;65.98;101628.73;2295502;77;51543;-75
2022/11/30 03:02:55;;;;;;;;;;;;;;;18.33;66.04;101632.39;2295445;77;50769;-75
2022/11/30 03:05:57;;;;;;;;;;;;;;;18.31;66.11;101636.22;2295256;77;51386;-75
2022/11/30 03:08:59;;;;;;;;;;;;;;;18.26;66.18;101635.34;2239459;77;52239;-75
2022/11/30 03:12:00;;;;;;;;;;;;;;;18.18;66.87;101638.81;2293894;77;51499;-75
2022/11/30 03:15:02;;;;;;;;;;;;;;;18.13;67.04;101632.24;2293598;77;51406;-74
2022/11/30 03:18:03;;;;;;;;;;;;;;;18.16;66.70;101635.95;2263760;77;50273;-74
2022/11/30 03:21:06;;;;;;;;;;;;;;;18.20;66.41;101635.98;2263768;77;51483;-75
2022/11/30 03:24:07;;;;;;;;;;;;;;;18.30;66.15;101636.73;2286278;77;50435;-75
2022/11/30 03:27:09;;;;;;;;;;;;;;;18.39;65.86;101641.13;2265611;77;51562;-76
2022/11/30 03:30:11;;;;;;;;;;;;;;;18.44;65.74;101642.84;2268902;78;51519;-75
2022/11/30 03:33:12;;;;;;;;;;;;;;;18.46;65.48;101645.38;2238447;78;51676;-76
2022/11/30 03:36:14;;;;;;;;;;;;;;;18.46;65.46;101652.91;2268567;78;53845;-75
2022/11/30 03:39:16;;;;;;;;;;;;;;;18.45;65.53;101652.58;2238477;78;51568;-75
2022/11/30 03:42:17;;;;;;;;;;;;;;;18.44;65.61;101648.70;2268728;78;50231;-77
2022/11/30 03:45:19;;;;;;;;;;;;;;;18.41;65.73;101653.87;2229398;77;51223;-76
2022/11/30 03:48:21;;;;;;;;;;;;;;;18.38;65.85;101654.20;2298716;77;50398;-76
2022/11/30 03:51:22;;;;;;;;;;;;;;;18.34;65.86;101658.68;2307403;77;49948;-76
2022/11/30 03:54:24;;;;;;;;;;;;;;;18.28;66.11;101653.45;2293403;77;50424;-75
2022/11/30 03:57:25;;;;;;;;;;;;;;;18.25;66.47;101654.61;2268058;77;51158;-75
2022/11/30 04:00:27;;;;;;;;;;;;;;;18.26;66.23;101655.44;2293710;77;50604;-76
2022/11/30 04:03:29;;;;;;;;;;;;;;;18.33;66.02;101667.22;2293311;77;51535;-76
2022/11/30 04:06:30;;;;;;;;;;;;;;;18.36;65.82;101664.22;2298977;77;50644;-77
2022/11/30 04:09:32;;;;;;;;;;;;;;;18.37;65.71;101661.03;2208131;78;50640;-76
2022/11/30 04:12:33;;;;;;;;;;;;;;;18.37;65.64;101659.23;2261095;78;51407;-74
2022/11/30 04:15:35;;;;;;;;;;;;;;;18.36;65.72;101667.41;2261037;78;51530;-75
2022/11/30 04:18:37;;;;;;;;;;;;;;;18.33;65.73;101667.22;2261154;78;51502;-75
2022/11/30 04:21:38;;;;;;;;;;;;;;;18.30;65.94;101678.25;2208009;78;51663;-75
2022/11/30 04:24:40;;;;;;;;;;;;;;;18.30;65.90;101672.90;2260873;78;50746;-75
2022/11/30 04:27:43;;;;;;;;;;;;;;;18.24;66.14;101664.16;2261059;78;51449;-76
2022/11/30 04:30:45;;;;;;;;;;;;;;;18.14;66.72;101666.09;2261221;78;51579;-76
2022/11/30 04:33:46;;;;;;;;;;;;;;;18.17;66.44;101665.77;2215088;77;51082;-75
2022/11/30 04:36:48;;;;;;;;;;;;;;;18.22;66.23;101672.84;2269415;77;50367;-74
2022/11/30 04:39:49;;;;;;;;;;;;;;;18.27;66.00;101674.05;2289193;77;50743;-74
2022/11/30 04:42:51;;;;;;;;;;;;;;;18.34;65.85;101685.00;2281718;77;51064;-74
2022/11/30 04:45:53;;;;;;;;;;;;;;;18.43;65.53;101681.36;2232463;77;51612;-76
2022/11/30 04:48:54;;;;;;;;;;;;;;;18.43;65.42;101690.74;2287566;77;51443;-75
2022/11/30 04:51:56;;;;;;;;;;;;;;;18.43;65.26;101693.42;2287450;77;51564;-75
2022/11/30 04:54:57;;;;;;;;;;;;;;;18.43;65.26;101689.41;2289338;77;50259;-77
2022/11/30 04:57:59;;;;;;;;;;;;;;;18.41;65.36;101692.73;2287907;77;50109;-76
2022/11/30 05:01:00;;;;;;;;;;;;;;;18.40;65.29;101692.41;2287657;77;50318;-77
2022/11/30 05:04:02;;;;;;;;;;;;;;;18.38;65.02;101685.01;2288974;77;50714;-77
2022/11/30 05:07:04;;;;;;;;;;;;;;;18.33;64.93;101688.66;2289005;77;51516;-77
2022/11/30 05:10:06;;;;;;;;;;;;;;;18.28;65.05;101687.78;2251420;78;51174;-77
2022/11/30 05:13:07;;;;;;;;;;;;;;;18.25;65.41;101692.11;2259435;78;50393;-76
2022/11/30 05:16:13;;;;;;;;;;;;;;;18.25;65.22;101698.81;2287269;78;49994;-77
2022/11/30 05:19:13;;;;;;;;;;;;;;;18.26;64.96;101695.63;2286395;77;22422;-77
2022/11/30 05:22:15;;;;;;;;;;;;;;;18.30;64.76;101706.89;2238013;77;51112;-77
2022/11/30 05:25:16;;;;;;;;;;;;;;;18.31;64.60;101705.38;2257364;77;50202;-77
2022/11/30 05:28:18;;;;;;;;;;;;;;;18.29;64.56;101712.76;2224162;79;50318;-77
2022/11/30 05:31:19;;;;;;;;;;;;;;;18.28;64.51;101713.73;2245348;79;50252;-77
2022/11/30 05:34:21;;;;;;;;;;;;;;;18.24;64.70;101711.04;2200042;79;51669;-76
2022/11/30 05:37:23;;;;;;;;;;;;;;;18.22;64.80;101719.72;2224064;79;51609;-77
2022/11/30 05:40:26;;;;;;;;;;;;;;;18.14;67.07;101715.14;2224098;79;51390;-77
2022/11/30 05:43:27;;;;;;;;;;;;;;;18.11;67.53;101714.11;2267504;77;22714;-75
2022/11/30 05:46:29;;;;;;;;;;;;;;;18.13;66.68;101721.97;2276311;78;52902;-77
2022/11/30 05:49:31;;;;;;;;;;;;;;;18.24;65.88;101723.94;2287768;78;49928;-77
2022/11/30 05:52:32;;;;;;;;;;;;;;;18.26;65.70;101719.27;2287586;78;50455;-76
2022/11/30 05:55:35;;;;;;;;;;;;;;;18.31;65.75;101721.96;2287532;78;50311;-77
2022/11/30 05:58:36;;;;;;;;;;;;;;;18.33;65.53;101731.53;2251380;78;52615;-77
2022/11/30 06:01:38;;;;;;;;;;;;;;;18.35;65.52;101728.20;2276727;78;50298;-77
2022/11/30 06:04:39;;;;;;;;;;;;;;;18.37;65.44;101740.95;2287540;78;50228;-77
2022/11/30 06:07:41;;;;;;;;;;;;;;;18.35;65.42;101738.92;2276777;78;50384;-77
2022/11/30 06:10:43;;;;;;;;;;;;;;;18.31;65.39;101738.87;2278147;78;50748;-76
2022/11/30 06:13:44;;;;;;;;;;;;;;;18.28;65.46;101738.69;2260732;78;50711;-77
2022/11/30 06:16:46;;;;;;;;;;;;;;;18.26;65.47;101742.04;2275597;77;51979;-76
2022/11/30 06:19:47;;;;;;;;;;;;;;;18.23;65.69;101741.48;2273133;78;51542;-75
2022/11/30 06:22:49;;;;;;;;;;;;;;;18.24;65.63;101737.83;2287224;78;51480;-77
2022/11/30 06:25:50;;;;;;;;;;;;;;;18.23;65.69;101736.13;2276470;78;50467;-77
2022/11/30 06:28:52;;;;;;;;;;;;;;;18.35;65.34;101750.98;2286682;78;50369;-76
2022/11/30 06:31:54;;;;;;;;;;;;;;;18.37;65.22;101750.33;2260183;78;50629;-76
2022/11/30 06:34:55;;;;;;;;;;;;;;;18.35;65.21;101748.80;2224114;79;50955;-77
2022/11/30 06:37:59;;;;;;;;;;;;;;;18.34;65.11;101750.64;2245752;79;51426;-77
2022/11/30 06:41:07;;;;;;;;;;;;;;;18.32;65.07;101751.29;2224744;79;22163;-77
2022/11/30 06:44:09;;;;;;;;;;;;;;;18.30;65.06;101754.62;2224137;79;51435;-77
2022/11/30 06:47:11;;;;;;;;;;;;;;;18.28;65.10;101755.27;2235537;77;49650;-77
2022/11/30 06:50:13;;;;;;;;;;;;;;;18.25;65.29;101758.25;2250812;77;49963;-77
2022/11/30 06:53:15;;;;;;;;;;;;;;;18.21;65.31;101765.77;2272819;78;51546;-77
2022/11/30 06:56:16;;;;;;;;;;;;;;;18.22;65.36;101762.59;2287667;78;50214;-77
2022/11/30 06:59:18;;;;;;;;;;;;;;;18.18;65.55;101767.39;2276539;78;49615;-77
2022/11/30 07:02:19;;;;;;;;;;;;;;;18.15;65.58;101770.38;2287473;78;50230;-77
2022/11/30 07:05:21;;;;;;;;;;;;;;;18.16;65.55;101772.55;2287387;78;50758;-77
2022/11/30 07:08:23;;;;;;;;;;;;;;;18.19;65.34;101774.95;2292385;77;51496;-77
2022/11/30 07:11:24;;;;;;;;;;;;;;;18.25;65.14;101780.52;2251746;77;52668;-77
2022/11/30 07:14:26;;;;;;;;;;;;;;;18.32;64.88;101786.13;2307369;77;51536;-76
2022/11/30 07:17:27;;;;;;;;;;;;;;;18.33;64.71;101783.77;2276181;77;51532;-77
2022/11/30 07:20:29;;;;;;;;;;;;;;;18.34;64.69;101781.45;2276002;77;49959;-76
2022/11/30 07:26:50;;;;;;;;;;;;;;;18.31;64.77;101800.50;2269447;77;24381;-76
2022/11/30 07:29:51;;;;;;;;;;;;;;;18.28;63.91;101799.47;2285421;77;51474;-73
2022/11/30 07:32:53;;;;;;;;;;;;;;;18.05;61.99;101791.88;2269505;77;50341;-74
2022/11/30 07:35:55;;;;;;;;;;;;;;;18.10;60.31;101801.30;2271800;77;50301;-77
2022/11/30 07:38:56;;;;;;;;;;;;;;;18.00;61.40;101802.20;2275542;77;51414;-77
2022/11/30 07:41:58;;;;;;;;;;;;;;;17.99;61.65;101807.22;2279940;77;51519;-78
2022/11/30 07:45:00;;;;;;;;;;;;;;;18.04;61.72;101802.25;2268644;78;51544;-78
2022/11/30 07:48:01;;;;;;;;;;;;;;;18.14;61.92;101808.89;2238386;78;50808;-76
2022/11/30 07:51:04;;;;;;;;;;;;;;;18.29;61.61;101807.88;2278740;77;50301;-78
2022/11/30 07:54:06;;;;;;;;;;;;;;;18.36;61.70;101810.77;2278604;77;50502;-77
2022/11/30 07:57:08;;;;;;;;;;;;;;;18.42;61.71;101815.02;2264694;78;50652;-78
2022/11/30 08:00:10;;;;;;;;;;;;;;;18.47;61.77;101810.52;2210482;78;51279;-77
2022/11/30 08:03:12;;;;;;;;;;;;;;;18.53;61.84;101810.42;2234141;78;50481;-77
2022/11/30 08:06:14;;;;;;;;;;;;;;;18.57;61.80;101813.95;2234217;78;51608;-79
2022/11/30 08:09:16;;;;;;;;;;;;;;;18.55;62.17;101812.42;2258491;78;50753;-77
2022/11/30 08:12:17;;;;;;;;;;;;;;;18.47;62.72;101809.18;2226219;79;50105;-75
2022/11/30 08:15:19;;;;;;;;;;;;;;;18.41;63.16;101817.34;2226160;79;51645;-76
2022/11/30 08:18:21;;;;;;;;;;;;;;;18.40;63.13;101822.37;2226542;79;50632;-77
2022/11/30 08:21:23;;;;;;;;;;;;;;;18.35;63.24;101820.64;2258439;78;51453;-77
2022/11/30 08:24:24;;;;;;;;;;;;;;;18.28;63.62;101819.56;2223093;78;50984;-77
2022/11/30 08:27:26;;;;;;;;;;;;;;;18.29;63.59;101834.66;2287167;78;51491;-77
2022/11/30 08:30:27;;;;;;;;;;;;;;;18.33;63.63;101824.47;2287664;78;51411;-78
2022/11/30 08:33:32;;;;;;;;;;;;;;;18.36;63.47;101831.70;2287833;78;50401;-77
2022/11/30 08:36:34;;;;;;;;;;;;;;;18.32;63.73;101828.16;2235819;78;51877;-77
2022/11/30 08:39:36;;;;;;;;;;;;;;;18.31;64.00;101834.49;2260038;78;51506;-78
2022/11/30 08:42:37;;;;;;;;;;;;;;;18.29;64.07;101837.34;2260035;78;50614;-77
2022/11/30 08:45:39;;;;;;;;;;;;;;;18.25;64.21;101831.93;2271888;78;50434;-77
2022/11/30 08:48:40;;;;;;;;;;;;;;;18.21;64.56;101832.74;2224436;79;50990;-76
2022/11/30 08:51:42;;;;;;;;;;;;;;;18.17;64.38;101839.89;2266854;78;50674;-76
2022/11/30 08:54:44;;;;;;;;;;;;;;;18.13;64.35;101837.98;2240004;78;51503;-79
2022/11/30 08:57:45;;;;;;;;;;;;;;;18.13;64.41;101846.53;2256278;78;50347;-78
2022/11/30 09:00:47;;;;;;;;;;;;;;;18.17;63.96;101842.56;2301418;77;50622;-77
2022/11/30 09:03:49;;;;;;;;;;;;;;;18.30;63.79;101845.71;2270195;78;50777;-76
2022/11/30 09:06:51;;;;;;;;;;;;;;;18.38;63.49;101849.81;2269774;77;50442;-76
2022/11/30 09:09:52;;;;;;;;;;;;;;;18.44;63.21;101847.84;2283167;78;50759;-77
2022/11/30 09:12:54;;;;;;;;;;;;;;;18.55;63.03;101859.33;2209910;79;49367;-76
2022/11/30 09:15:55;;;;;;;;;;;;;;;18.56;63.16;101858.36;2247463;78;50344;-76
2022/11/30 09:18:57;;;;;;;;;;;;;;;18.58;63.08;101857.72;2234914;78;50718;-76
2022/11/30 09:21:59;;;;;;;;;;;;;;;18.60;62.83;101851.67;2273005;78;51453;-76
2022/11/30 09:25:01;;;;;;;;;;;;;;;18.58;62.78;101852.35;2212295;78;51257;-74
2022/11/30 09:28:02;;;;;;;;;;;;;;;18.55;62.97;101852.63;2245736;78;51607;-74
2022/11/30 09:31:05;;;;;;;;;;;;;;;18.48;63.00;101850.58;2254269;77;51469;-74
2022/11/30 09:34:09;;;;;;;;;;;;;;;18.49;62.89;101849.57;2268474;77;51521;-75
2022/11/30 09:37:10;;;;;;;;;;;;;;;18.44;62.99;101846.50;2253958;77;51666;-76
2022/11/30 09:40:12;;;;;;;;;;;;;;;18.38;63.07;101847.63;2288633;77;50433;-77
2022/11/30 09:43:22;;;;;;;;;;;;;;;18.37;63.11;101856.17;2288743;77;51639;-73
2022/11/30 09:46:25;;;;;;;;;;;;;;;18.45;62.91;101854.08;2277813;76;50787;-75
2022/11/30 09:49:27;;;;;;;;;;;;;;;18.56;62.65;101853.83;2267136;78;52463;-74
2022/11/30 09:52:36;;;;;;;;;;;;;;;18.57;62.66;101856.01;2278317;78;51594;-78
2022/11/30 09:55:38;;;;;;;;;;;;;;;18.61;62.61;101848.02;2278716;78;50015;-78
2022/11/30 09:58:41;;;;;;;;;;;;;;;18.60;62.51;101848.52;2274365;77;51590;-78
2022/11/30 10:01:43;;;;;;;;;;;;;;;18.58;62.46;101842.97;2282411;77;51838;-78
2022/11/30 10:04:45;;;;;;;;;;;;;;;18.49;62.65;101832.15;2311467;77;50626;-78
2022/11/30 10:07:51;;;;;;;;;;;;;;;18.38;63.47;101840.43;2311738;77;51450;-79
2022/11/30 10:10:55;;;;;;;;;;;;;;;18.32;63.50;101849.59;2310684;76;50759;-78
2022/11/30 10:14:13;;;;;;;;;;;;;;;18.29;63.41;101836.00;2280827;77;49997;-79
2022/11/30 10:17:33;;;;;;;;;;;;;;;18.34;63.38;101842.22;2300781;77;50843;-78
2022/11/30 10:20:42;;;;;;;;;;;;;;;18.44;62.98;101842.48;2263167;78;50773;-77
2022/11/30 10:23:58;;;;;;;;;;;;;;;18.51;62.83;101848.09;2263048;78;51675;-81
2022/11/30 10:26:59;;;;;;;;;;;;;;;18.59;62.63;101843.30;2232918;78;52585;-80
2022/11/30 10:30:01;;;;;;;;;;;;;;;18.62;62.53;101840.30;2263318;78;50759;-80
2022/11/30 10:33:08;;;;;;;;;;;;;;;18.62;62.44;101847.01;2280327;77;50312;-79
2022/11/30 10:36:11;;;;;;;;;;;;;;;18.65;62.34;101838.18;2304820;77;22409;-78
2022/11/30 10:39:21;;;;;;;;;;;;;;;18.62;62.40;101848.34;2261708;77;51172;-77
2022/11/30 10:42:25;;;;;;;;;;;;;;;18.62;62.44;101848.34;2263250;78;50742;-78
2022/11/30 10:45:26;;;;;;;;;;;;;;;18.60;62.43;101838.27;2287231;77;51264;-77
2022/11/30 10:48:36;;;;;;;;;;;;;;;18.47;62.91;101839.53;2298909;77;50182;-76
2022/11/30 10:51:38;;;;;;;;;;;;;;;18.38;63.35;101839.09;2274261;77;52416;-78
2022/11/30 10:54:40;;;;;;;;;;;;;;;18.35;63.15;101842.08;2305434;77;51488;-78
2022/11/30 10:57:41;;;;;;;;;;;;;;;18.41;62.94;101841.96;2308079;77;50665;-79
2022/11/30 11:01:03;;;;;;;;;;;;;;;18.49;62.67;101846.89;2286102;77;50522;-78
2022/11/30 11:04:15;;;;;;;;;;;;;;;18.57;62.44;101839.92;2263443;77;51717;-78
2022/11/30 11:07:16;;;;;;;;;;;;;;;18.53;63.55;101842.59;2298867;77;51462;-73
2022/11/30 11:10:19;;;;;;;;;;;;;;;18.50;62.95;101841.89;2287461;77;50212;-78
2022/11/30 11:13:38;;;;;;;;;;;;;;;18.53;63.06;101842.59;2280426;78;50779;-77
2022/11/30 11:16:50;;;;;;;;;;;;;;;18.43;63.33;101844.83;2248710;78;51877;-76
2022/11/30 11:19:51;;;;;;;;;;;;;;;18.40;63.39;101843.80;2295572;77;51555;-75
2022/11/30 11:22:53;;;;;;;;;;;;;;;18.38;63.52;101847.63;2296620;77;51459;-79
2022/11/30 11:25:56;;;;;;;;;;;;;;;18.35;63.53;101847.95;2279338;78;50215;-80
2022/11/30 11:29:01;;;;;;;;;;;;;;;18.32;63.35;101853.11;2284499;78;52522;-78
2022/11/30 11:32:06;;;;;;;;;;;;;;;18.35;63.51;101864.86;2285230;78;51251;-79
2022/11/30 11:35:09;;;;;;;;;;;;;;;18.42;63.44;101852.54;2285222;78;50759;-79
2022/11/30 11:38:18;;;;;;;;;;;;;;;18.56;62.88;101848.47;2288910;76;51415;-79
2022/11/30 11:41:24;;;;;;;;;;;;;;;18.61;62.55;101852.04;2286199;76;50542;-79
2022/11/30 11:44:26;;;;;;;;;;;;;;;18.64;62.25;101851.22;2285524;78;50312;-79
2022/11/30 11:47:40;;;;;;;;;;;;;;;18.67;62.03;101854.92;2290117;77;51531;-79
2022/11/30 11:50:42;;;;;;;;;;;;;;;18.66;61.94;101860.46;2306425;77;51443;-79
2022/11/30 11:53:44;;;;;;;;;;;;;;;18.66;61.83;101864.48;2273610;77;52264;-79
2022/11/30 11:56:46;;;;;;;;;;;;;;;18.61;61.84;101868.13;2305468;77;50413;-78
2022/11/30 12:00:01;;;;;;;;;;;;;;;18.55;61.90;101866.03;2306423;77;51532;-79
2022/11/30 12:03:04;;;;;;;;;;;;;;;18.52;61.87;101869.86;2273695;77;51595;-79
2022/11/30 12:06:10;;;;;;;;;;;;;;;18.45;61.99;101862.95;2278595;77;51681;-80
2022/11/30 12:09:17;;;;;;;;;;;;;;;18.44;61.96;101863.09;2310553;77;50867;-79
2022/11/30 12:12:18;;;;;;;;;;;;;;;18.47;61.84;101864.98;2301934;77;50704;-79
2022/11/30 12:15:22;;;;;;;;;;;;;;;18.55;61.52;101864.22;2290890;77;50782;-80
2022/11/30 12:18:24;;;;;;;;;;;;;;;18.66;61.13;101867.16;2281063;78;51563;-80
2022/11/30 12:21:27;;;;;;;;;;;;;;;18.72;60.93;101869.22;2237950;78;51735;-80
2022/11/30 12:24:37;;;;;;;;;;;;;;;18.72;60.82;101867.37;2287877;78;50421;-79
2022/11/30 12:27:52;;;;;;;;;;;;;;;18.72;60.77;101867.87;2287690;78;50151;-79
2022/11/30 12:30:58;;;;;;;;;;;;;;;18.73;60.75;101865.56;2287923;78;50616;-79
2022/11/30 12:34:07;;;;;;;;;;;;;;;18.62;60.94;101864.44;2262314;78;52864;-79
2022/11/30 12:37:27;;;;;;;;;;;;;;;18.58;60.97;101875.14;2287943;78;50729;-79
2022/11/30 12:40:36;;;;;;;;;;;;;;;18.53;61.08;101869.39;2288037;78;51599;-79
2022/11/30 12:43:48;;;;;;;;;;;;;;;18.51;61.19;101876.23;2287069;77;50406;-79
2022/11/30 12:46:52;;;;;;;;;;;;;;;18.49;61.21;101873.69;2250711;78;50211;-79
2022/11/30 12:50:04;;;;;;;;;;;;;;;18.49;61.17;101870.17;2287034;78;50290;-79
2022/11/30 12:53:13;;;;;;;;;;;;;;;18.54;61.08;101867.05;2287769;78;52005;-79
2022/11/30 12:56:23;;;;;;;;;;;;;;;18.62;60.90;101871.97;2262714;78;51481;-79
2022/11/30 12:59:32;;;;;;;;;;;;;;;18.69;60.68;101869.53;2263574;78;50788;-79
2022/11/30 13:02:47;;;;;;;;;;;;;;;18.72;60.49;101870.56;2287955;77;51497;-79
2022/11/30 13:05:53;;;;;;;;;;;;;;;18.68;60.54;101875.91;2285480;78;50704;-79
2022/11/30 13:09:05;;;;;;;;;;;;;;;18.66;60.47;101873.87;2266546;78;50767;-80
2022/11/30 13:12:08;;;;;;;;;;;;;;;18.64;60.47;101879.88;2248586;78;51786;-76
2022/11/30 13:15:14;;;;;;;;;;;;;;;18.59;60.54;101878.98;2259763;78;50456;-77
2022/11/30 13:18:21;;;;;;;;;;;;;;;18.52;60.66;101877.06;2259463;78;51523;-77
2022/11/30 13:21:24;;;;;;;;;;;;;;;18.52;60.77;101885.11;2258504;78;51778;-78
2022/11/30 13:24:27;;;;;;;;;;;;;;;18.52;60.72;101885.11;2226596;78;52502;-77
2022/11/30 13:27:34;;;;;;;;;;;;;;;18.49;60.74;101884.41;2258998;78;51560;-77
2022/11/30 13:30:40;;;;;;;;;;;;;;;18.53;60.67;101888.16;2259190;78;51421;-76
2022/11/30 13:33:44;;;;;;;;;;;;;;;18.63;60.44;101885.73;2247789;78;50677;-77
2022/11/30 13:36:45;;;;;;;;;;;;;;;18.69;60.34;101890.98;2207193;79;51288;-78
2022/11/30 13:39:51;;;;;;;;;;;;;;;18.74;60.16;101892.70;2220180;80;50244;-78
2022/11/30 13:42:54;;;;;;;;;;;;;;;18.75;60.00;101898.42;2264955;78;51270;-80
2022/11/30 13:46:06;;;;;;;;;;;;;;;18.72;60.02;101900.05;2264802;78;50375;-79
2022/11/30 13:49:13;;;;;;;;;;;;;;;18.68;60.16;101896.01;2233735;78;52195;-75
2022/11/30 13:52:14;;;;;;;;;;;;;;;18.63;60.18;101893.78;2264594;78;51444;-75
2022/11/30 13:55:36;;;;;;;;;;;;;;;18.62;60.25;101889.39;2258051;78;50618;-77
2022/11/30 13:58:37;;;;;;;;;;;;;;;18.58;60.27;101896.08;2261037;78;51591;-77
2022/11/30 14:01:39;;;;;;;;;;;;;;;18.57;60.23;101898.90;2234671;78;52267;-77
2022/11/30 14:04:44;;;;;;;;;;;;;;;18.56;60.30;101905.27;2256084;78;51547;-77
2022/11/30 14:07:47;;;;;;;;;;;;;;;18.56;60.30;101907.44;2263222;78;51591;-77
2022/11/30 14:10:49;;;;;;;;;;;;;;;18.62;60.13;101903.30;2268934;77;50330;-77
2022/11/30 14:13:50;;;;;;;;;;;;;;;18.71;59.83;101907.77;2263337;77;52420;-76
2022/11/30 14:16:52;;;;;;;;;;;;;;;18.74;59.70;101907.45;2294010;77;51461;-75
2022/11/30 14:19:55;;;;;;;;;;;;;;;18.75;59.70;101909.62;2294122;77;50624;-77
2022/11/30 14:22:57;;;;;;;;;;;;;;;18.73;59.65;101907.12;2283891;77;51448;-77
2022/11/30 14:26:01;;;;;;;;;;;;;;;18.72;59.70;101912.95;2263652;77;51122;-78
2022/11/30 14:29:10;;;;;;;;;;;;;;;18.64;59.88;101914.22;2294039;77;50256;-77
2022/11/30 14:32:12;;;;;;;;;;;;;;;18.62;59.90;101915.37;2294152;77;50757;-77
2022/11/30 14:35:15;;;;;;;;;;;;;;;18.57;60.01;101923.02;2276114;77;51524;-77
2022/11/30 14:38:28;;;;;;;;;;;;;;;18.50;60.09;101934.36;2228172;78;49657;-76
2022/11/30 14:41:30;;;;;;;;;;;;;;;18.47;60.12;101940.03;2259784;78;52004;-76
2022/11/30 14:44:35;;;;;;;;;;;;;;;18.47;60.10;101941.38;2255183;78;51646;-77
2022/11/30 14:47:36;;;;;;;;;;;;;;;18.56;59.91;101942.80;2227725;78;50782;-76
2022/11/30 14:50:40;;;;;;;;;;;;;;;18.58;59.90;101950.19;2227739;78;51590;-77
2022/11/30 14:53:52;;;;;;;;;;;;;;;18.68;59.59;101948.29;2260542;78;51506;-77
2022/11/30 14:56:55;;;;;;;;;;;;;;;18.72;59.40;101937.08;2260282;78;50287;-77
2022/11/30 14:59:57;;;;;;;;;;;;;;;18.77;59.33;101941.19;2260954;78;50374;-77
2022/11/30 15:02:58;;;;;;;;;;;;;;;18.76;59.34;101940.36;2227448;78;52096;-79
2022/11/30 15:06:00;;;;;;;;;;;;;;;18.77;59.25;101938.51;2254666;78;50763;-77
2022/11/30 15:09:02;;;;;;;;;;;;;;;18.73;59.31;101933.93;2261263;78;50290;-77
2022/11/30 15:12:03;;;;;;;;;;;;;;;18.68;59.40;101936.23;2266599;77;50320;-80
2022/11/30 15:15:07;;;;;;;;;;;;;;;18.63;59.53;101938.52;2229048;78;52402;-77
2022/11/30 15:18:16;;;;;;;;;;;;;;;18.59;59.55;101939.30;2271106;78;50676;-79
2022/11/30 15:21:23;;;;;;;;;;;;;;;18.53;59.75;101941.26;2272034;77;51667;-78
2022/11/30 15:24:22;;;;;;;;;;;;;;;18.52;59.71;101947.59;2279054;77;22413;-79
2022/11/30 15:27:24;;;;;;;;;;;;;;;18.49;59.82;101956.78;2287551;78;50618;-78
2022/11/30 15:30:25;;;;;;;;;;;;;;;18.58;59.67;101956.89;2287475;78;50292;-78
2022/11/30 15:33:29;;;;;;;;;;;;;;;18.65;59.47;101955.27;2287442;77;50737;-78
2022/11/30 15:36:34;;;;;;;;;;;;;;;18.70;59.30;101947.62;2287494;76;50658;-79
2022/11/30 15:39:36;;;;;;;;;;;;;;;18.67;59.66;101958.65;2262737;78;50934;-79
2022/11/30 15:42:42;;;;;;;;;;;;;;;18.60;60.03;101950.39;2277845;77;50662;-76
2022/11/30 15:45:45;;;;;;;;;;;;;;;18.56;60.20;101956.20;2285410;78;51358;-76